| time (UTC) | temp F | wind direction | speed MPH | gust MPH | rain 1hr in | rain 24hr in | rain mn in | humidity % | barometer mb |
| 20260507151404 | 69 | 37 | 2.0 | 6.0 | 0.00 | 0.03 | 0.03 | 50 | 1009.9 |
| 20260507150404 | 67 | 205 | 5.0 | 16.0 | 0.00 | 0.03 | 0.03 | 53 | 1010.0 |
| 20260507143404 | 68 | 123 | 6.0 | 12.0 | 0.00 | 0.03 | 0.03 | 56 | 1010.5 |
| 20260507140905 | 66 | 106 | 10.0 | 14.0 | 0.00 | 0.03 | 0.03 | 59 | 1010.7 |
| 20260507140404 | 66 | 118 | 9.0 | 17.0 | 0.00 | 0.03 | 0.03 | 57 | 1010.8 |
| 20260507133904 | 64 | 106 | 6.0 | 17.0 | 0.00 | 0.03 | 0.03 | 69 | 1011.4 |
| 20260507131906 | 63 | 84 | 5.0 | 10.0 | 0.00 | 0.03 | 0.03 | 73 | 1011.6 |
| 20260507131405 | 62 | 89 | 6.0 | 14.0 | 0.00 | 0.03 | 0.03 | 72 | 1011.6 |
| 20260507130904 | 63 | 117 | 7.0 | 12.0 | 0.00 | 0.03 | 0.03 | 70 | 1011.6 |
| 20260507124904 | 63 | 116 | 13.0 | 18.0 | 0.00 | 0.03 | 0.03 | 68 | 1011.7 |
| 20260507123904 | 63 | 100 | 10.0 | 17.0 | 0.00 | 0.03 | 0.03 | 71 | 1012.0 |
| 20260507120404 | 62 | 117 | 12.0 | 21.0 | 0.00 | 0.03 | 0.03 | 71 | 1012.2 |
| 20260507114904 | 62 | 121 | 13.0 | 20.0 | 0.00 | 0.03 | 0.03 | 76 | 1012.1 |
| 20260507114404 | 62 | 117 | 8.0 | 18.0 | 0.00 | 0.03 | 0.03 | 76 | 1012.1 |
| 20260507111404 | 61 | 124 | 10.0 | 16.0 | 0.03 | 0.03 | 0.03 | 75 | 1012.3 |
| 20260507110904 | 61 | 116 | 9.0 | 17.0 | 0.03 | 0.03 | 0.03 | 76 | 1012.2 |
| 20260507110404 | 61 | 110 | 7.0 | 20.0 | 0.03 | 0.03 | 0.03 | 78 | 1012.2 |
| 20260507104904 | 60 | 105 | 9.0 | 13.0 | 0.03 | 0.03 | 0.03 | 81 | 1012.1 |
| 20260507103904 | 60 | 136 | 10.0 | 17.0 | 0.03 | 0.03 | 0.03 | 80 | 1012.3 |
| 20260507103404 | 59 | 118 | 10.0 | 18.0 | 0.03 | 0.03 | 0.03 | 80 | 1012.1 |
| 20260507100904 | 61 | 106 | 10.0 | 23.0 | 0.00 | 0.00 | 0.00 | 80 | 1011.4 |
| 20260507094904 | 63 | 122 | 13.0 | 23.0 | 0.00 | 0.00 | 0.00 | 78 | 1011.1 |
| 20260507093405 | 63 | 124 | 14.0 | 25.0 | 0.00 | 0.00 | 0.00 | 78 | 1011.1 |
| 20260507090404 | 63 | 118 | 14.0 | 26.0 | 0.00 | 0.00 | 0.00 | 78 | 1011.2 |
| 20260507084905 | 62 | 118 | 14.0 | 21.0 | 0.00 | 0.00 | 0.00 | 78 | 1011.3 |
| 20260507083904 | 62 | 117 | 12.0 | 20.0 | 0.00 | 0.00 | 0.00 | 79 | 1011.2 |
| 20260507081904 | 62 | 132 | 10.0 | 20.0 | 0.00 | 0.00 | 0.00 | 80 | 1011.1 |
| 20260507080904 | 62 | 107 | 10.0 | 17.0 | 0.00 | 0.00 | 0.00 | 82 | 1011.1 |
| 20260507073905 | 61 | 120 | 7.0 | 14.0 | 0.00 | 0.00 | 0.00 | 80 | 1011.3 |
| 20260507073404 | 62 | 115 | 9.0 | 14.0 | 0.00 | 0.00 | 0.00 | 79 | 1011.3 |
| 20260507071904 | 61 | 97 | 2.0 | 8.0 | 0.00 | 0.00 | 0.00 | 80 | 1011.2 |
| 20260507071404 | 60 | 119 | 3.0 | 7.0 | 0.00 | 0.00 | 0.00 | 81 | 1011.2 |
| 20260507063904 | 58 | 198 | 1.0 | 2.0 | 0.00 | 0.00 | 0.00 | 77 | 1010.9 |
| 20260507060404 | 57 | 232 | 2.0 | 3.0 | 0.00 | 0.00 | 0.00 | 74 | 1010.6 |
| 20260507054904 | 57 | 255 | 2.0 | 3.0 | 0.00 | 0.00 | 0.00 | 72 | 1010.5 |
| 20260507054404 | 57 | 239 | 2.0 | 3.0 | 0.00 | 0.00 | 0.00 | 72 | 1010.4 |
| 20260507053904 | 57 | 232 | 1.0 | 2.0 | 0.00 | 0.00 | 0.00 | 72 | 1010.3 |
| 20260507053404 | 56 | 235 | 2.0 | 3.0 | 0.00 | 0.00 | 0.00 | 73 | 1010.3 |
| 20260507051904 | 56 | 239 | 2.0 | 3.0 | 0.00 | 0.00 | 0.00 | 74 | 1010.4 |
| 20260507044904 | 56 | 65 | 2.0 | 3.0 | 0.00 | 0.00 | 0.00 | 75 | 1010.1 |
| 20260507043904 | 56 | 290 | 1.0 | 2.0 | 0.00 | 0.00 | 0.00 | 77 | 1010.1 |
| 20260507041904 | 55 | 242 | 2.0 | 3.0 | 0.00 | 0.00 | 0.00 | 75 | 1009.9 |
| 20260507040904 | 56 | 250 | 3.0 | 3.0 | 0.00 | 0.00 | 0.00 | 73 | 1009.8 |
| 20260507034404 | 55 | 317 | 1.0 | 3.0 | 0.00 | 0.00 | 0.00 | 74 | 1009.8 |
| 20260507031904 | 55 | 276 | 2.0 | 3.0 | 0.00 | 0.00 | 0.00 | 81 | 1010.1 |
| 20260507030904 | 55 | 302 | 2.0 | 3.0 | 0.00 | 0.00 | 0.00 | 82 | 1010.0 |
| 20260507030404 | 55 | 60 | 3.0 | 6.0 | 0.00 | 0.00 | 0.00 | 80 | 1010.1 |
| 20260507024904 | 55 | 248 | 2.0 | 3.0 | 0.00 | 0.00 | 0.00 | 83 | 1010.0 |
| 20260507023904 | 55 | 262 | 3.0 | 3.0 | 0.00 | 0.00 | 0.00 | 82 | 1010.0 |
| 20260507021903 | 55 | 103 | 1.0 | 3.0 | 0.00 | 0.00 | 0.00 | 81 | 1009.9 |
| 20260507021404 | 55 | 115 | 1.0 | 3.0 | 0.00 | 0.00 | 0.00 | 81 | 1010.0 |
| 20260507020904 | 55 | 127 | 3.0 | 3.0 | 0.00 | 0.00 | 0.00 | 79 | 1010.0 |
| 20260507020404 | 56 | 78 | 2.0 | 3.0 | 0.00 | 0.00 | 0.00 | 79 | 1010.1 |
| 20260507013904 | 56 | 276 | 2.0 | 3.0 | 0.00 | 0.00 | 0.00 | 80 | 1010.1 |
| 20260507013404 | 56 | 259 | 3.0 | 6.0 | 0.00 | 0.00 | 0.00 | 79 | 1010.2 |
| 20260507011404 | 56 | 264 | 3.0 | 3.0 | 0.00 | 0.00 | 0.00 | 80 | 1010.2 |
| 20260507010904 | 56 | 286 | 3.0 | 6.0 | 0.00 | 0.00 | 0.00 | 78 | 1010.3 |
| 20260507010404 | 56 | 289 | 2.0 | 3.0 | 0.00 | 0.00 | 0.00 | 77 | 1010.3 |
| 20260507004904 | 57 | 320 | 1.0 | 3.0 | 0.00 | 0.00 | 0.00 | 79 | 1010.3 |
| 20260507004404 | 57 | 320 | 2.0 | 3.0 | 0.00 | 0.00 | 0.00 | 80 | 1010.3 |
| 20260507003904 | 57 | 320 | 2.0 | 3.0 | 0.00 | 0.00 | 0.00 | 79 | 1010.3 |
| 20260507001904 | 57 | 317 | 1.0 | 3.0 | 0.00 | 0.00 | 0.00 | 78 | 1010.4 |
| 20260507000904 | 58 | 331 | 1.0 | 2.0 | 0.00 | 0.00 | 0.00 | 78 | 1010.6 |
| 20260507000405 | 58 | 324 | 2.0 | 3.0 | 0.00 | 0.00 | 0.00 | 80 | 1010.6 |
| 20260506233904 | 58 | 341 | 2.0 | 3.0 | 0.00 | 0.00 | 0.00 | 78 | 1010.9 |
| 20260506233404 | 58 | 351 | 3.0 | 3.0 | 0.00 | 0.00 | 0.00 | 77 | 1011.1 |
| 20260506231404 | 58 | 355 | 2.0 | 3.0 | 0.00 | 0.00 | 0.00 | 77 | 1011.0 |
| 20260506230904 | 59 | 347 | 2.0 | 3.0 | 0.00 | 0.00 | 0.00 | 78 | 1011.1 |
| 20260506230404 | 59 | 0 | 0.0 | 3.0 | 0.00 | 0.00 | 0.00 | 81 | 1011.1 |
| 20260506221904 | 59 | 310 | 1.0 | 3.0 | 0.00 | 0.00 | 0.00 | 77 | 1010.9 |
| 20260506221404 | 59 | 63 | 0.0 | 0.0 | 0.00 | 0.00 | 0.00 | 78 | 1011.0 |
| 20260506220903 | 59 | 67 | 0.0 | 1.0 | 0.00 | 0.00 | 0.00 | 78 | 1010.9 |
| 20260506214904 | 60 | 29 | 2.0 | 3.0 | 0.00 | 0.00 | 0.00 | 77 | 1010.9 |
| 20260506213404 | 60 | 30 | 0.0 | 1.0 | 0.00 | 0.00 | 0.00 | 75 | 1011.1 |
| 20260506210903 | 61 | 121 | 1.0 | 3.0 | 0.00 | 0.00 | 0.00 | 74 | 1010.9 |
| 20260506204404 | 61 | 149 | 1.0 | 3.0 | 0.00 | 0.00 | 0.00 | 71 | 1010.6 |
| 20260506203404 | 61 | 122 | 3.0 | 6.0 | 0.00 | 0.00 | 0.00 | 73 | 1010.5 |
| 20260506201904 | 61 | 110 | 5.0 | 7.0 | 0.00 | 0.00 | 0.00 | 75 | 1010.4 |
| 20260506201403 | 61 | 97 | 5.0 | 7.0 | 0.00 | 0.00 | 0.00 | 74 | 1010.3 |
| 20260506194404 | 64 | 180 | 1.0 | 3.0 | 0.00 | 0.00 | 0.00 | 61 | 1009.7 |
| 20260506193904 | 64 | 158 | 1.0 | 3.0 | 0.00 | 0.00 | 0.00 | 58 | 1009.7 |
| 20260506193404 | 64 | 134 | 1.0 | 6.0 | 0.00 | 0.00 | 0.00 | 57 | 1009.6 |
| 20260506190404 | 66 | 118 | 2.0 | 3.0 | 0.00 | 0.00 | 0.00 | 49 | 1009.3 |
| 20260506184904 | 67 | 105 | 2.0 | 3.0 | 0.00 | 0.00 | 0.00 | 46 | 1009.1 |
| 20260506183404 | 66 | 126 | 1.0 | 3.0 | 0.00 | 0.00 | 0.00 | 46 | 1009.0 |
| 20260506181904 | 66 | 116 | 1.0 | 3.0 | 0.00 | 0.00 | 0.00 | 48 | 1008.9 |
| 20260506181404 | 66 | 120 | 2.0 | 5.0 | 0.00 | 0.00 | 0.00 | 48 | 1009.0 |
| 20260506173404 | 67 | 121 | 3.0 | 12.0 | 0.00 | 0.00 | 0.00 | 47 | 1009.1 |
| 20260506171904 | 67 | 44 | 7.0 | 14.0 | 0.00 | 0.00 | 0.00 | 46 | 1009.1 |
| 20260506170403 | 68 | 101 | 5.0 | 12.0 | 0.00 | 0.00 | 0.00 | 45 | 1009.0 |
| 20260506164904 | 68 | 85 | 3.0 | 12.0 | 0.00 | 0.00 | 0.00 | 44 | 1009.0 |
| 20260506163904 | 68 | 104 | 7.0 | 15.0 | 0.00 | 0.00 | 0.00 | 43 | 1009.1 |
| 20260506163403 | 69 | 152 | 6.0 | 14.0 | 0.00 | 0.00 | 0.00 | 42 | 1009.1 |
| 20260506161903 | 70 | 133 | 4.0 | 12.0 | 0.00 | 0.00 | 0.00 | 40 | 1009.1 |
| 20260506161404 | 70 | 84 | 3.0 | 13.0 | 0.00 | 0.00 | 0.00 | 39 | 1009.1 |
| 20260506160403 | 69 | 294 | 5.0 | 14.0 | 0.00 | 0.00 | 0.00 | 41 | 1009.0 |
| 20260506153403 | 69 | 112 | 5.0 | 17.0 | 0.00 | 0.00 | 0.00 | 40 | 1009.3 |